sensor_id;sensor_type;location;lat;lon;timestamp;P1;durP1;ratioP1;P2;durP2;ratioP2
52848;SDS011;38714;53.180;5.812;2023-05-07T00:00:21;12.93;;;7.10;;
52848;SDS011;38714;53.180;5.812;2023-05-07T00:02:46;14.35;;;6.82;;
52848;SDS011;38714;53.180;5.812;2023-05-07T00:05:12;14.48;;;7.70;;
52848;SDS011;38714;53.180;5.812;2023-05-07T00:07:39;12.07;;;6.82;;
52848;SDS011;38714;53.180;5.812;2023-05-07T00:10:05;14.15;;;7.32;;
52848;SDS011;38714;53.180;5.812;2023-05-07T00:12:32;13.25;;;6.63;;
52848;SDS011;38714;53.180;5.812;2023-05-07T00:15:03;13.48;;;7.03;;
52848;SDS011;38714;53.180;5.812;2023-05-07T00:17:30;11.48;;;6.88;;
52848;SDS011;38714;53.180;5.812;2023-05-07T00:19:56;14.38;;;7.25;;
52848;SDS011;38714;53.180;5.812;2023-05-07T00:22:21;13.75;;;7.15;;
52848;SDS011;38714;53.180;5.812;2023-05-07T00:24:47;11.05;;;6.30;;
52848;SDS011;38714;53.180;5.812;2023-05-07T00:27:13;12.30;;;6.60;;
52848;SDS011;38714;53.180;5.812;2023-05-07T00:29:38;12.80;;;7.45;;
52848;SDS011;38714;53.180;5.812;2023-05-07T00:32:04;11.77;;;6.53;;
52848;SDS011;38714;53.180;5.812;2023-05-07T00:34:30;11.82;;;6.15;;
52848;SDS011;38714;53.180;5.812;2023-05-07T00:36:55;11.18;;;6.68;;
52848;SDS011;38714;53.180;5.812;2023-05-07T00:39:21;12.25;;;6.43;;
52848;SDS011;38714;53.180;5.812;2023-05-07T00:41:46;15.68;;;7.30;;
52848;SDS011;38714;53.180;5.812;2023-05-07T00:44:12;13.02;;;6.55;;
52848;SDS011;38714;53.180;5.812;2023-05-07T00:46:39;14.60;;;6.55;;
52848;SDS011;38714;53.180;5.812;2023-05-07T00:49:05;13.55;;;6.53;;
52848;SDS011;38714;53.180;5.812;2023-05-07T00:51:31;15.73;;;8.60;;
52848;SDS011;38714;53.180;5.812;2023-05-07T00:53:59;12.75;;;7.07;;
52848;SDS011;38714;53.180;5.812;2023-05-07T00:56:25;12.65;;;6.97;;
52848;SDS011;38714;53.180;5.812;2023-05-07T00:58:51;10.90;;;6.75;;
52848;SDS011;38714;53.180;5.812;2023-05-07T01:01:17;14.80;;;7.25;;
52848;SDS011;38714;53.180;5.812;2023-05-07T01:03:43;13.60;;;6.53;;
52848;SDS011;38714;53.180;5.812;2023-05-07T01:06:09;15.05;;;7.40;;
52848;SDS011;38714;53.180;5.812;2023-05-07T01:08:37;15.25;;;7.15;;
52848;SDS011;38714;53.180;5.812;2023-05-07T01:11:04;17.20;;;6.53;;
52848;SDS011;38714;53.180;5.812;2023-05-07T01:13:31;17.02;;;7.50;;
52848;SDS011;38714;53.180;5.812;2023-05-07T01:15:58;14.70;;;7.28;;
52848;SDS011;38714;53.180;5.812;2023-05-07T01:18:24;14.05;;;6.95;;
52848;SDS011;38714;53.180;5.812;2023-05-07T01:20:51;13.50;;;6.45;;
52848;SDS011;38714;53.180;5.812;2023-05-07T01:23:17;13.77;;;6.32;;
52848;SDS011;38714;53.180;5.812;2023-05-07T01:25:43;15.93;;;7.18;;
52848;SDS011;38714;53.180;5.812;2023-05-07T01:28:16;11.52;;;6.88;;
52848;SDS011;38714;53.180;5.812;2023-05-07T01:30:42;13.75;;;6.18;;
52848;SDS011;38714;53.180;5.812;2023-05-07T01:33:12;13.85;;;6.53;;
52848;SDS011;38714;53.180;5.812;2023-05-07T01:35:41;13.52;;;7.40;;
52848;SDS011;38714;53.180;5.812;2023-05-07T01:38:10;10.88;;;6.35;;
52848;SDS011;38714;53.180;5.812;2023-05-07T01:40:37;14.23;;;7.55;;
52848;SDS011;38714;53.180;5.812;2023-05-07T01:43:03;9.38;;;6.25;;
52848;SDS011;38714;53.180;5.812;2023-05-07T01:45:30;14.73;;;7.35;;
52848;SDS011;38714;53.180;5.812;2023-05-07T01:47:57;12.65;;;6.38;;
52848;SDS011;38714;53.180;5.812;2023-05-07T01:50:23;12.48;;;6.32;;
52848;SDS011;38714;53.180;5.812;2023-05-07T01:52:50;12.73;;;6.03;;
52848;SDS011;38714;53.180;5.812;2023-05-07T01:55:17;12.13;;;6.93;;
52848;SDS011;38714;53.180;5.812;2023-05-07T01:57:42;14.80;;;6.32;;
52848;SDS011;38714;53.180;5.812;2023-05-07T02:00:08;16.88;;;8.98;;
52848;SDS011;38714;53.180;5.812;2023-05-07T02:02:34;13.90;;;6.57;;
52848;SDS011;38714;53.180;5.812;2023-05-07T02:05:00;16.35;;;8.43;;
52848;SDS011;38714;53.180;5.812;2023-05-07T02:07:26;18.02;;;8.10;;
52848;SDS011;38714;53.180;5.812;2023-05-07T02:09:52;14.73;;;6.72;;
52848;SDS011;38714;53.180;5.812;2023-05-07T02:12:18;15.27;;;8.05;;
52848;SDS011;38714;53.180;5.812;2023-05-07T02:14:44;16.42;;;8.10;;
52848;SDS011;38714;53.180;5.812;2023-05-07T02:17:09;13.15;;;7.95;;
52848;SDS011;38714;53.180;5.812;2023-05-07T02:19:35;14.77;;;8.23;;
52848;SDS011;38714;53.180;5.812;2023-05-07T02:22:00;17.60;;;8.68;;
52848;SDS011;38714;53.180;5.812;2023-05-07T02:24:26;18.13;;;8.43;;
52848;SDS011;38714;53.180;5.812;2023-05-07T02:26:52;15.65;;;8.15;;
52848;SDS011;38714;53.180;5.812;2023-05-07T02:29:17;12.85;;;7.35;;
52848;SDS011;38714;53.180;5.812;2023-05-07T02:31:43;16.92;;;8.20;;
52848;SDS011;38714;53.180;5.812;2023-05-07T02:34:08;15.45;;;8.05;;
52848;SDS011;38714;53.180;5.812;2023-05-07T02:36:34;15.60;;;8.27;;
52848;SDS011;38714;53.180;5.812;2023-05-07T02:39:00;14.65;;;8.70;;
52848;SDS011;38714;53.180;5.812;2023-05-07T02:41:25;16.17;;;9.10;;
52848;SDS011;38714;53.180;5.812;2023-05-07T02:43:53;22.33;;;9.75;;
52848;SDS011;38714;53.180;5.812;2023-05-07T02:46:18;16.70;;;8.35;;
52848;SDS011;38714;53.180;5.812;2023-05-07T02:48:44;15.25;;;9.15;;
52848;SDS011;38714;53.180;5.812;2023-05-07T02:51:09;18.80;;;8.88;;
52848;SDS011;38714;53.180;5.812;2023-05-07T02:53:35;14.32;;;7.90;;
52848;SDS011;38714;53.180;5.812;2023-05-07T02:56:01;20.23;;;9.63;;
52848;SDS011;38714;53.180;5.812;2023-05-07T02:58:27;16.95;;;8.18;;
52848;SDS011;38714;53.180;5.812;2023-05-07T03:00:53;16.27;;;8.40;;
52848;SDS011;38714;53.180;5.812;2023-05-07T03:03:22;15.40;;;8.32;;
52848;SDS011;38714;53.180;5.812;2023-05-07T03:05:48;16.88;;;9.45;;
52848;SDS011;38714;53.180;5.812;2023-05-07T03:08:13;20.17;;;9.18;;
52848;SDS011;38714;53.180;5.812;2023-05-07T03:10:39;17.83;;;8.25;;
52848;SDS011;38714;53.180;5.812;2023-05-07T03:13:05;17.13;;;8.63;;
52848;SDS011;38714;53.180;5.812;2023-05-07T03:15:30;19.23;;;8.43;;
52848;SDS011;38714;53.180;5.812;2023-05-07T03:17:56;17.60;;;9.63;;
52848;SDS011;38714;53.180;5.812;2023-05-07T03:20:22;19.42;;;9.48;;
52848;SDS011;38714;53.180;5.812;2023-05-07T03:22:47;19.48;;;9.27;;
52848;SDS011;38714;53.180;5.812;2023-05-07T03:25:13;16.13;;;8.45;;
52848;SDS011;38714;53.180;5.812;2023-05-07T03:27:40;19.05;;;9.20;;
52848;SDS011;38714;53.180;5.812;2023-05-07T03:30:07;18.70;;;9.65;;
52848;SDS011;38714;53.180;5.812;2023-05-07T03:32:33;19.90;;;9.02;;
52848;SDS011;38714;53.180;5.812;2023-05-07T03:35:00;20.27;;;9.98;;
52848;SDS011;38714;53.180;5.812;2023-05-07T03:37:26;17.00;;;9.23;;
52848;SDS011;38714;53.180;5.812;2023-05-07T03:39:51;16.73;;;9.35;;
52848;SDS011;38714;53.180;5.812;2023-05-07T03:42:17;15.43;;;8.30;;
52848;SDS011;38714;53.180;5.812;2023-05-07T03:44:42;21.92;;;8.75;;
52848;SDS011;38714;53.180;5.812;2023-05-07T03:47:08;16.25;;;8.05;;
52848;SDS011;38714;53.180;5.812;2023-05-07T03:49:35;20.60;;;10.00;;
52848;SDS011;38714;53.180;5.812;2023-05-07T03:52:00;18.95;;;8.73;;
52848;SDS011;38714;53.180;5.812;2023-05-07T03:54:26;18.15;;;9.60;;
52848;SDS011;38714;53.180;5.812;2023-05-07T03:56:52;21.25;;;9.38;;
52848;SDS011;38714;53.180;5.812;2023-05-07T03:59:17;17.10;;;9.30;;
52848;SDS011;38714;53.180;5.812;2023-05-07T04:01:43;19.83;;;9.65;;
52848;SDS011;38714;53.180;5.812;2023-05-07T04:04:08;19.63;;;10.23;;
52848;SDS011;38714;53.180;5.812;2023-05-07T04:06:34;16.58;;;8.55;;
52848;SDS011;38714;53.180;5.812;2023-05-07T04:08:59;16.73;;;9.32;;
52848;SDS011;38714;53.180;5.812;2023-05-07T04:11:26;16.55;;;9.20;;
52848;SDS011;38714;53.180;5.812;2023-05-07T04:13:52;19.02;;;9.77;;
52848;SDS011;38714;53.180;5.812;2023-05-07T04:16:17;19.63;;;10.27;;
52848;SDS011;38714;53.180;5.812;2023-05-07T04:18:43;18.60;;;9.38;;
52848;SDS011;38714;53.180;5.812;2023-05-07T04:21:15;21.55;;;9.85;;
52848;SDS011;38714;53.180;5.812;2023-05-07T04:23:41;18.58;;;9.43;;
52848;SDS011;38714;53.180;5.812;2023-05-07T04:26:07;19.77;;;9.52;;
52848;SDS011;38714;53.180;5.812;2023-05-07T04:28:33;18.88;;;8.73;;
52848;SDS011;38714;53.180;5.812;2023-05-07T04:30:59;21.08;;;9.00;;
52848;SDS011;38714;53.180;5.812;2023-05-07T04:33:25;22.42;;;11.05;;
52848;SDS011;38714;53.180;5.812;2023-05-07T04:35:50;26.20;;;12.13;;
52848;SDS011;38714;53.180;5.812;2023-05-07T04:38:16;17.08;;;9.27;;
52848;SDS011;38714;53.180;5.812;2023-05-07T04:40:43;23.83;;;10.75;;
52848;SDS011;38714;53.180;5.812;2023-05-07T04:43:09;15.65;;;9.90;;
52848;SDS011;38714;53.180;5.812;2023-05-07T04:45:35;21.40;;;10.43;;
52848;SDS011;38714;53.180;5.812;2023-05-07T04:48:01;26.23;;;11.25;;
52848;SDS011;38714;53.180;5.812;2023-05-07T04:50:27;19.80;;;9.77;;
52848;SDS011;38714;53.180;5.812;2023-05-07T04:52:52;21.83;;;10.80;;
52848;SDS011;38714;53.180;5.812;2023-05-07T04:55:18;22.92;;;10.95;;
52848;SDS011;38714;53.180;5.812;2023-05-07T04:57:44;22.00;;;10.90;;
52848;SDS011;38714;53.180;5.812;2023-05-07T05:00:10;28.35;;;11.05;;
52848;SDS011;38714;53.180;5.812;2023-05-07T05:02:39;24.42;;;9.93;;
52848;SDS011;38714;53.180;5.812;2023-05-07T05:05:05;22.98;;;10.65;;
52848;SDS011;38714;53.180;5.812;2023-05-07T05:07:31;21.60;;;10.57;;
52848;SDS011;38714;53.180;5.812;2023-05-07T05:09:57;21.00;;;10.93;;
52848;SDS011;38714;53.180;5.812;2023-05-07T05:12:22;22.05;;;11.55;;
52848;SDS011;38714;53.180;5.812;2023-05-07T05:14:48;22.00;;;10.05;;
52848;SDS011;38714;53.180;5.812;2023-05-07T05:17:13;26.27;;;12.95;;
52848;SDS011;38714;53.180;5.812;2023-05-07T05:19:39;22.10;;;10.70;;
52848;SDS011;38714;53.180;5.812;2023-05-07T05:22:05;26.15;;;12.70;;
52848;SDS011;38714;53.180;5.812;2023-05-07T05:24:30;23.75;;;11.00;;
52848;SDS011;38714;53.180;5.812;2023-05-07T05:26:56;23.02;;;10.30;;
52848;SDS011;38714;53.180;5.812;2023-05-07T05:29:22;20.23;;;10.10;;
52848;SDS011;38714;53.180;5.812;2023-05-07T05:31:47;23.67;;;11.73;;
52848;SDS011;38714;53.180;5.812;2023-05-07T05:34:13;27.17;;;12.70;;
52848;SDS011;38714;53.180;5.812;2023-05-07T05:36:39;22.33;;;11.30;;
52848;SDS011;38714;53.180;5.812;2023-05-07T05:39:04;22.38;;;12.00;;
52848;SDS011;38714;53.180;5.812;2023-05-07T05:41:30;27.10;;;12.43;;
52848;SDS011;38714;53.180;5.812;2023-05-07T05:43:56;22.52;;;13.43;;
52848;SDS011;38714;53.180;5.812;2023-05-07T05:46:22;24.77;;;11.95;;
52848;SDS011;38714;53.180;5.812;2023-05-07T05:48:47;25.30;;;12.15;;
52848;SDS011;38714;53.180;5.812;2023-05-07T05:51:13;28.08;;;12.38;;
52848;SDS011;38714;53.180;5.812;2023-05-07T05:53:38;29.42;;;12.02;;
52848;SDS011;38714;53.180;5.812;2023-05-07T05:56:04;27.85;;;11.57;;
52848;SDS011;38714;53.180;5.812;2023-05-07T05:58:30;23.58;;;11.48;;
52848;SDS011;38714;53.180;5.812;2023-05-07T06:00:56;27.10;;;10.82;;
52848;SDS011;38714;53.180;5.812;2023-05-07T06:03:21;24.08;;;10.68;;
52848;SDS011;38714;53.180;5.812;2023-05-07T06:05:47;25.33;;;11.93;;
52848;SDS011;38714;53.180;5.812;2023-05-07T06:08:12;26.00;;;12.23;;
52848;SDS011;38714;53.180;5.812;2023-05-07T06:10:38;22.05;;;11.18;;
52848;SDS011;38714;53.180;5.812;2023-05-07T06:13:04;27.10;;;12.13;;
52848;SDS011;38714;53.180;5.812;2023-05-07T06:15:30;26.60;;;13.32;;
52848;SDS011;38714;53.180;5.812;2023-05-07T06:17:55;22.73;;;11.15;;
52848;SDS011;38714;53.180;5.812;2023-05-07T06:20:22;23.20;;;10.70;;
52848;SDS011;38714;53.180;5.812;2023-05-07T06:22:48;25.73;;;11.60;;
52848;SDS011;38714;53.180;5.812;2023-05-07T06:25:14;24.25;;;11.95;;
52848;SDS011;38714;53.180;5.812;2023-05-07T06:27:39;28.38;;;12.95;;
52848;SDS011;38714;53.180;5.812;2023-05-07T06:30:05;26.08;;;11.93;;
52848;SDS011;38714;53.180;5.812;2023-05-07T06:32:31;24.55;;;11.40;;
52848;SDS011;38714;53.180;5.812;2023-05-07T06:34:57;23.80;;;11.38;;
52848;SDS011;38714;53.180;5.812;2023-05-07T06:37:23;30.25;;;11.40;;
52848;SDS011;38714;53.180;5.812;2023-05-07T06:39:48;29.10;;;11.88;;
52848;SDS011;38714;53.180;5.812;2023-05-07T06:42:14;30.83;;;11.80;;
52848;SDS011;38714;53.180;5.812;2023-05-07T06:44:40;25.73;;;12.18;;
52848;SDS011;38714;53.180;5.812;2023-05-07T06:47:05;27.85;;;13.50;;
52848;SDS011;38714;53.180;5.812;2023-05-07T06:49:31;22.30;;;11.63;;
52848;SDS011;38714;53.180;5.812;2023-05-07T06:51:57;23.38;;;11.60;;
52848;SDS011;38714;53.180;5.812;2023-05-07T06:54:23;27.15;;;11.35;;
52848;SDS011;38714;53.180;5.812;2023-05-07T06:56:48;25.63;;;12.90;;
52848;SDS011;38714;53.180;5.812;2023-05-07T06:59:14;22.33;;;11.77;;
52848;SDS011;38714;53.180;5.812;2023-05-07T07:01:40;24.58;;;10.10;;
52848;SDS011;38714;53.180;5.812;2023-05-07T07:04:06;17.63;;;9.95;;
52848;SDS011;38714;53.180;5.812;2023-05-07T07:06:31;26.35;;;10.10;;
52848;SDS011;38714;53.180;5.812;2023-05-07T07:08:57;21.65;;;10.32;;
52848;SDS011;38714;53.180;5.812;2023-05-07T07:11:23;22.05;;;10.23;;
52848;SDS011;38714;53.180;5.812;2023-05-07T07:13:49;19.63;;;11.25;;
52848;SDS011;38714;53.180;5.812;2023-05-07T07:16:15;19.40;;;10.18;;
52848;SDS011;38714;53.180;5.812;2023-05-07T07:18:41;23.45;;;10.30;;
52848;SDS011;38714;53.180;5.812;2023-05-07T07:21:07;23.73;;;10.82;;
52848;SDS011;38714;53.180;5.812;2023-05-07T07:23:33;20.33;;;10.07;;
52848;SDS011;38714;53.180;5.812;2023-05-07T07:25:58;22.67;;;11.07;;
52848;SDS011;38714;53.180;5.812;2023-05-07T07:28:24;27.85;;;13.27;;
52848;SDS011;38714;53.180;5.812;2023-05-07T07:30:50;27.08;;;12.32;;
52848;SDS011;38714;53.180;5.812;2023-05-07T07:33:15;20.55;;;11.10;;
52848;SDS011;38714;53.180;5.812;2023-05-07T07:35:41;25.17;;;9.38;;
52848;SDS011;38714;53.180;5.812;2023-05-07T07:38:07;23.13;;;10.52;;
52848;SDS011;38714;53.180;5.812;2023-05-07T07:40:34;19.25;;;9.68;;
52848;SDS011;38714;53.180;5.812;2023-05-07T07:43:00;21.67;;;10.85;;
52848;SDS011;38714;53.180;5.812;2023-05-07T07:45:26;24.83;;;9.95;;
52848;SDS011;38714;53.180;5.812;2023-05-07T07:47:52;24.33;;;10.95;;
52848;SDS011;38714;53.180;5.812;2023-05-07T07:50:17;23.88;;;10.90;;
52848;SDS011;38714;53.180;5.812;2023-05-07T07:52:43;19.67;;;10.13;;
52848;SDS011;38714;53.180;5.812;2023-05-07T07:55:09;23.70;;;10.23;;
52848;SDS011;38714;53.180;5.812;2023-05-07T07:57:35;20.73;;;9.85;;
52848;SDS011;38714;53.180;5.812;2023-05-07T08:00:00;21.13;;;9.70;;
52848;SDS011;38714;53.180;5.812;2023-05-07T08:02:26;21.73;;;12.73;;
52848;SDS011;38714;53.180;5.812;2023-05-07T08:04:52;17.63;;;10.18;;
52848;SDS011;38714;53.180;5.812;2023-05-07T08:07:17;18.60;;;10.20;;
52848;SDS011;38714;53.180;5.812;2023-05-07T08:09:45;24.33;;;9.68;;
52848;SDS011;38714;53.180;5.812;2023-05-07T08:12:11;23.50;;;9.98;;
52848;SDS011;38714;53.180;5.812;2023-05-07T08:14:37;20.20;;;10.18;;
52848;SDS011;38714;53.180;5.812;2023-05-07T08:17:02;21.52;;;9.98;;
52848;SDS011;38714;53.180;5.812;2023-05-07T08:19:28;22.35;;;10.43;;
52848;SDS011;38714;53.180;5.812;2023-05-07T08:21:54;20.27;;;9.70;;
52848;SDS011;38714;53.180;5.812;2023-05-07T08:24:20;18.27;;;8.95;;
52848;SDS011;38714;53.180;5.812;2023-05-07T08:26:46;19.10;;;9.35;;
52848;SDS011;38714;53.180;5.812;2023-05-07T08:29:11;15.93;;;9.05;;
52848;SDS011;38714;53.180;5.812;2023-05-07T08:31:37;16.23;;;9.60;;
52848;SDS011;38714;53.180;5.812;2023-05-07T08:34:06;16.63;;;9.40;;
52848;SDS011;38714;53.180;5.812;2023-05-07T08:36:32;19.65;;;9.20;;
52848;SDS011;38714;53.180;5.812;2023-05-07T08:38:57;21.98;;;11.02;;
52848;SDS011;38714;53.180;5.812;2023-05-07T08:41:24;19.80;;;9.85;;
52848;SDS011;38714;53.180;5.812;2023-05-07T08:43:50;18.75;;;9.13;;
52848;SDS011;38714;53.180;5.812;2023-05-07T08:46:17;22.83;;;10.95;;
52848;SDS011;38714;53.180;5.812;2023-05-07T08:48:44;22.83;;;10.02;;
52848;SDS011;38714;53.180;5.812;2023-05-07T08:51:16;17.52;;;11.15;;
52848;SDS011;38714;53.180;5.812;2023-05-07T08:53:44;21.60;;;10.35;;
52848;SDS011;38714;53.180;5.812;2023-05-07T08:56:10;21.05;;;9.63;;
52848;SDS011;38714;53.180;5.812;2023-05-07T08:58:36;19.08;;;9.18;;
52848;SDS011;38714;53.180;5.812;2023-05-07T09:01:03;23.55;;;11.10;;
52848;SDS011;38714;53.180;5.812;2023-05-07T09:03:32;18.20;;;8.40;;
52848;SDS011;38714;53.180;5.812;2023-05-07T09:05:58;21.95;;;10.80;;
52848;SDS011;38714;53.180;5.812;2023-05-07T09:08:24;24.45;;;11.68;;
52848;SDS011;38714;53.180;5.812;2023-05-07T09:10:51;20.20;;;9.60;;
52848;SDS011;38714;53.180;5.812;2023-05-07T09:13:17;20.30;;;9.57;;
52848;SDS011;38714;53.180;5.812;2023-05-07T09:15:43;17.77;;;9.98;;
52848;SDS011;38714;53.180;5.812;2023-05-07T09:18:09;21.90;;;11.35;;
52848;SDS011;38714;53.180;5.812;2023-05-07T09:20:36;18.73;;;10.48;;
52848;SDS011;38714;53.180;5.812;2023-05-07T09:23:02;21.15;;;9.88;;
52848;SDS011;38714;53.180;5.812;2023-05-07T09:25:31;21.35;;;11.32;;
52848;SDS011;38714;53.180;5.812;2023-05-07T09:27:57;16.80;;;9.52;;
52848;SDS011;38714;53.180;5.812;2023-05-07T09:30:27;22.20;;;10.10;;
52848;SDS011;38714;53.180;5.812;2023-05-07T09:32:54;18.65;;;10.18;;
52848;SDS011;38714;53.180;5.812;2023-05-07T09:35:20;20.73;;;10.23;;
52848;SDS011;38714;53.180;5.812;2023-05-07T09:37:55;22.83;;;9.38;;
52848;SDS011;38714;53.180;5.812;2023-05-07T09:40:22;20.58;;;9.73;;
52848;SDS011;38714;53.180;5.812;2023-05-07T09:42:52;18.98;;;9.32;;
52848;SDS011;38714;53.180;5.812;2023-05-07T09:45:22;20.77;;;10.32;;
52848;SDS011;38714;53.180;5.812;2023-05-07T09:47:47;21.83;;;10.60;;
52848;SDS011;38714;53.180;5.812;2023-05-07T09:50:14;23.42;;;11.40;;
52848;SDS011;38714;53.180;5.812;2023-05-07T09:52:41;23.17;;;10.55;;
52848;SDS011;38714;53.180;5.812;2023-05-07T09:55:08;21.98;;;10.98;;
52848;SDS011;38714;53.180;5.812;2023-05-07T09:57:35;19.80;;;10.25;;
52848;SDS011;38714;53.180;5.812;2023-05-07T10:00:02;18.92;;;10.05;;
52848;SDS011;38714;53.180;5.812;2023-05-07T10:02:33;21.80;;;10.85;;
52848;SDS011;38714;53.180;5.812;2023-05-07T10:05:01;21.92;;;9.63;;
52848;SDS011;38714;53.180;5.812;2023-05-07T10:07:28;26.98;;;10.13;;
52848;SDS011;38714;53.180;5.812;2023-05-07T10:09:55;20.23;;;10.23;;
52848;SDS011;38714;53.180;5.812;2023-05-07T10:12:21;21.02;;;10.50;;
52848;SDS011;38714;53.180;5.812;2023-05-07T10:14:46;25.10;;;10.80;;
52848;SDS011;38714;53.180;5.812;2023-05-07T10:17:13;19.00;;;10.15;;
52848;SDS011;38714;53.180;5.812;2023-05-07T10:19:42;21.85;;;10.10;;
52848;SDS011;38714;53.180;5.812;2023-05-07T10:22:09;19.83;;;10.55;;
52848;SDS011;38714;53.180;5.812;2023-05-07T10:24:36;20.38;;;10.38;;
52848;SDS011;38714;53.180;5.812;2023-05-07T10:27:04;19.88;;;9.13;;
52848;SDS011;38714;53.180;5.812;2023-05-07T10:29:39;21.58;;;11.20;;
52848;SDS011;38714;53.180;5.812;2023-05-07T10:32:49;22.40;;;11.73;;
52848;SDS011;38714;53.180;5.812;2023-05-07T10:35:14;25.65;;;10.77;;
52848;SDS011;38714;53.180;5.812;2023-05-07T10:37:44;21.13;;;10.52;;
52848;SDS011;38714;53.180;5.812;2023-05-07T10:40:10;24.30;;;10.73;;
52848;SDS011;38714;53.180;5.812;2023-05-07T10:42:37;20.65;;;11.10;;
52848;SDS011;38714;53.180;5.812;2023-05-07T10:45:12;22.00;;;10.95;;
52848;SDS011;38714;53.180;5.812;2023-05-07T10:48:42;19.42;;;10.30;;
52848;SDS011;38714;53.180;5.812;2023-05-07T10:50:37;24.42;;;10.18;;
52848;SDS011;38714;53.180;5.812;2023-05-07T11:00:50;18.20;;;9.48;;
52848;SDS011;38714;53.180;5.812;2023-05-07T11:03:20;19.45;;;9.52;;
52848;SDS011;38714;53.180;5.812;2023-05-07T11:05:47;22.95;;;10.05;;
52848;SDS011;38714;53.180;5.812;2023-05-07T11:11:17;19.23;;;9.70;;
52848;SDS011;38714;53.180;5.812;2023-05-07T11:13:43;20.77;;;10.32;;
52848;SDS011;38714;53.180;5.812;2023-05-07T11:16:23;22.05;;;10.63;;
52848;SDS011;38714;53.180;5.812;2023-05-07T11:18:51;19.70;;;10.23;;
52848;SDS011;38714;53.180;5.812;2023-05-07T11:24:03;21.30;;;10.63;;
52848;SDS011;38714;53.180;5.812;2023-05-07T11:26:31;16.92;;;8.52;;
52848;SDS011;38714;53.180;5.812;2023-05-07T11:29:10;17.75;;;9.43;;
52848;SDS011;38714;53.180;5.812;2023-05-07T11:31:43;18.85;;;10.02;;
52848;SDS011;38714;53.180;5.812;2023-05-07T11:34:09;18.67;;;9.80;;
52848;SDS011;38714;53.180;5.812;2023-05-07T11:36:36;19.63;;;9.55;;
52848;SDS011;38714;53.180;5.812;2023-05-07T11:39:23;22.25;;;10.55;;
52848;SDS011;38714;53.180;5.812;2023-05-07T11:41:52;27.00;;;12.15;;
52848;SDS011;38714;53.180;5.812;2023-05-07T11:44:18;21.77;;;10.02;;
52848;SDS011;38714;53.180;5.812;2023-05-07T11:46:43;24.23;;;12.07;;
52848;SDS011;38714;53.180;5.812;2023-05-07T11:49:10;21.40;;;10.30;;
52848;SDS011;38714;53.180;5.812;2023-05-07T11:51:35;20.83;;;10.40;;
52848;SDS011;38714;53.180;5.812;2023-05-07T11:54:03;20.25;;;11.02;;
52848;SDS011;38714;53.180;5.812;2023-05-07T11:56:29;19.58;;;10.00;;
52848;SDS011;38714;53.180;5.812;2023-05-07T11:58:58;23.80;;;9.95;;
52848;SDS011;38714;53.180;5.812;2023-05-07T12:01:24;19.83;;;10.35;;
52848;SDS011;38714;53.180;5.812;2023-05-07T12:03:50;20.23;;;10.38;;
52848;SDS011;38714;53.180;5.812;2023-05-07T12:06:16;17.10;;;9.20;;
52848;SDS011;38714;53.180;5.812;2023-05-07T12:08:42;21.05;;;10.20;;
52848;SDS011;38714;53.180;5.812;2023-05-07T12:11:24;21.17;;;10.25;;
52848;SDS011;38714;53.180;5.812;2023-05-07T12:13:51;21.52;;;10.73;;
52848;SDS011;38714;53.180;5.812;2023-05-07T12:16:18;21.13;;;9.85;;
52848;SDS011;38714;53.180;5.812;2023-05-07T12:18:44;18.95;;;9.70;;
52848;SDS011;38714;53.180;5.812;2023-05-07T12:21:11;18.08;;;9.60;;
52848;SDS011;38714;53.180;5.812;2023-05-07T12:23:37;19.88;;;10.43;;
52848;SDS011;38714;53.180;5.812;2023-05-07T12:26:03;18.13;;;10.50;;
52848;SDS011;38714;53.180;5.812;2023-05-07T12:28:36;18.77;;;9.15;;
52848;SDS011;38714;53.180;5.812;2023-05-07T12:31:03;21.65;;;10.57;;
52848;SDS011;38714;53.180;5.812;2023-05-07T12:33:30;21.73;;;10.18;;
52848;SDS011;38714;53.180;5.812;2023-05-07T12:35:57;19.95;;;10.73;;
52848;SDS011;38714;53.180;5.812;2023-05-07T12:38:27;16.75;;;9.23;;
52848;SDS011;38714;53.180;5.812;2023-05-07T12:41:02;19.58;;;9.90;;
52848;SDS011;38714;53.180;5.812;2023-05-07T12:43:29;18.58;;;9.68;;
52848;SDS011;38714;53.180;5.812;2023-05-07T12:45:59;16.52;;;9.02;;
52848;SDS011;38714;53.180;5.812;2023-05-07T12:48:26;21.13;;;10.85;;
52848;SDS011;38714;53.180;5.812;2023-05-07T12:50:55;19.30;;;11.10;;
52848;SDS011;38714;53.180;5.812;2023-05-07T12:53:23;18.20;;;10.15;;
52848;SDS011;38714;53.180;5.812;2023-05-07T12:55:50;14.35;;;8.68;;
52848;SDS011;38714;53.180;5.812;2023-05-07T12:58:24;14.35;;;8.95;;
52848;SDS011;38714;53.180;5.812;2023-05-07T13:00:52;14.95;;;8.43;;
52848;SDS011;38714;53.180;5.812;2023-05-07T13:03:24;18.50;;;8.63;;
52848;SDS011;38714;53.180;5.812;2023-05-07T13:05:58;15.18;;;8.77;;
52848;SDS011;38714;53.180;5.812;2023-05-07T13:08:25;17.33;;;9.20;;
52848;SDS011;38714;53.180;5.812;2023-05-07T13:10:52;16.65;;;8.60;;
52848;SDS011;38714;53.180;5.812;2023-05-07T13:13:18;18.20;;;8.63;;
52848;SDS011;38714;53.180;5.812;2023-05-07T13:15:45;15.73;;;8.95;;
52848;SDS011;38714;53.180;5.812;2023-05-07T13:18:11;16.77;;;9.57;;
52848;SDS011;38714;53.180;5.812;2023-05-07T13:20:37;16.33;;;9.35;;
52848;SDS011;38714;53.180;5.812;2023-05-07T13:23:03;14.75;;;9.38;;
52848;SDS011;38714;53.180;5.812;2023-05-07T13:25:29;19.08;;;8.80;;
52848;SDS011;38714;53.180;5.812;2023-05-07T13:27:58;17.02;;;8.10;;
52848;SDS011;38714;53.180;5.812;2023-05-07T13:30:24;17.38;;;9.60;;
52848;SDS011;38714;53.180;5.812;2023-05-07T13:32:50;14.57;;;8.48;;
52848;SDS011;38714;53.180;5.812;2023-05-07T13:35:17;16.63;;;8.88;;
52848;SDS011;38714;53.180;5.812;2023-05-07T13:37:42;18.38;;;9.90;;
52848;SDS011;38714;53.180;5.812;2023-05-07T13:40:08;16.77;;;8.80;;
52848;SDS011;38714;53.180;5.812;2023-05-07T13:42:34;15.15;;;8.30;;
52848;SDS011;38714;53.180;5.812;2023-05-07T13:45:00;13.70;;;8.63;;
52848;SDS011;38714;53.180;5.812;2023-05-07T13:47:27;16.40;;;8.60;;
52848;SDS011;38714;53.180;5.812;2023-05-07T13:49:52;18.67;;;8.82;;
52848;SDS011;38714;53.180;5.812;2023-05-07T13:52:18;17.40;;;8.30;;
52848;SDS011;38714;53.180;5.812;2023-05-07T13:54:45;15.57;;;9.02;;
52848;SDS011;38714;53.180;5.812;2023-05-07T13:57:10;16.08;;;8.60;;
52848;SDS011;38714;53.180;5.812;2023-05-07T13:59:36;15.93;;;8.10;;
52848;SDS011;38714;53.180;5.812;2023-05-07T14:02:01;15.02;;;8.30;;
52848;SDS011;38714;53.180;5.812;2023-05-07T14:04:27;16.80;;;8.85;;
52848;SDS011;38714;53.180;5.812;2023-05-07T14:06:52;16.45;;;8.60;;
52848;SDS011;38714;53.180;5.812;2023-05-07T14:09:18;15.93;;;9.48;;
52848;SDS011;38714;53.180;5.812;2023-05-07T14:11:43;15.75;;;8.75;;
52848;SDS011;38714;53.180;5.812;2023-05-07T14:14:09;18.08;;;8.40;;
52848;SDS011;38714;53.180;5.812;2023-05-07T14:16:37;10.40;;;7.10;;
52848;SDS011;38714;53.180;5.812;2023-05-07T14:19:03;12.82;;;7.80;;
52848;SDS011;38714;53.180;5.812;2023-05-07T14:21:29;15.93;;;8.63;;
52848;SDS011;38714;53.180;5.812;2023-05-07T14:23:55;16.27;;;8.50;;
52848;SDS011;38714;53.180;5.812;2023-05-07T14:26:21;15.73;;;8.95;;
52848;SDS011;38714;53.180;5.812;2023-05-07T14:28:48;18.13;;;9.02;;
52848;SDS011;38714;53.180;5.812;2023-05-07T14:31:13;11.40;;;7.28;;
52848;SDS011;38714;53.180;5.812;2023-05-07T14:33:39;11.85;;;6.93;;
52848;SDS011;38714;53.180;5.812;2023-05-07T14:36:05;12.13;;;7.25;;
52848;SDS011;38714;53.180;5.812;2023-05-07T14:38:31;15.77;;;8.32;;